Big Springs, Nebraska
Current Conditions -  °F | °C
As of 4:35 PM on Monday 20 Oct 2014 (Local Time) from KOGA Reporting Station
Clear Clear  
Wind Chill: 77°   Ceiling: Unl
Heat Index: 78°   Visibility: 10mi
Dew Point: 42°   Wind: 13mph
Humidity: 28%   Direction: 170°S
Pressure: 30.04"   Gusts: 18mph
Location:  41.06°N, 102.07°W
Report Text: KOGA 202235Z AUTO 17011G16KT 10SM CLR 25/05 A3004 RMK AO2 T02520054
Loading
Personal Weather Stations






























Interactive Weather Map
Tropical Storm Tracking
New forecast layout! Learn more

10-Day Weather Forecast

Advertisements
Track Severe Weather on mobile